Time;durP1;ratioP1;P1;durP2;ratioP2;P2;SDS_P1;SDS_P2;PMS_P1;PMS_P2;Temp;Humidity;BMP_temperature;BMP_pressure;BME280_temperature;BME280_humidity;BME280_pressure;Samples;Min_cycle;Max_cycle;Signal;HPM_P1;HPM_P2
2022/06/21 00:02:17;;;;;;;1.83;0.68;;;;;;;;;;4990862;28;20394;-68
2022/06/21 00:04:43;;;;;;;1.35;0.52;;;;;;;;;;4974532;28;20418;-69
2022/06/21 00:07:21;;;;;;;1.42;0.63;;;;;;;;;;5008459;28;20408;-69
2022/06/21 00:09:47;;;;;;;1.35;0.63;;;;;;;;;;5008493;28;20431;-68
2022/06/21 00:12:12;;;;;;;1.55;0.90;;;;;;;;;;4990794;28;20420;-68
2022/06/21 00:14:39;;;;;;;1.92;0.70;;;;;;;;;;4990476;28;20055;-68
2022/06/21 00:17:04;;;;;;;1.20;0.45;;;;;;;;;;4990946;28;20420;-68
2022/06/21 00:19:30;;;;;;;1.98;0.40;;;;;;;;;;4990465;28;20422;-68
2022/06/21 00:21:56;;;;;;;0.85;0.50;;;;;;;;;;4991445;28;20051;-68
2022/06/21 00:24:21;;;;;;;1.33;0.60;;;;;;;;;;5008256;28;20040;-69
2022/06/21 00:26:47;;;;;;;0.63;0.40;;;;;;;;;;5008288;28;20550;-68
2022/06/21 00:29:12;;;;;;;1.88;0.75;;;;;;;;;;5008537;28;20423;-69
2022/06/21 00:31:50;;;;;;;2.22;0.63;;;;;;;;;;5008466;28;20439;-68
2022/06/21 00:34:20;;;;;;;0.77;0.32;;;;;;;;;;5008687;28;20409;-69
2022/06/21 00:36:46;;;;;;;0.70;0.50;;;;;;;;;;4990533;28;20439;-68
2022/06/21 00:39:17;;;;;;;0.70;0.60;;;;;;;;;;5007258;28;20316;-69
2022/06/21 00:41:47;;;;;;;0.70;0.60;;;;;;;;;;5008076;28;20320;-70
2022/06/21 00:44:18;;;;;;;0.90;0.50;;;;;;;;;;5007134;28;20344;-69
2022/06/21 00:46:51;;;;;;;1.33;0.60;;;;;;;;;;5009438;28;20423;-68
2022/06/21 00:49:20;;;;;;;2.42;1.25;;;;;;;;;;4990462;28;20414;-68
2022/06/21 00:51:47;;;;;;;1.75;0.65;;;;;;;;;;4990289;28;20321;-69
2022/06/21 00:54:27;;;;;;;1.30;0.73;;;;;;;;;;5006826;28;20359;-68
2022/06/21 00:57:14;;;;;;;1.27;0.88;;;;;;;;;;4990193;28;20059;-69
2022/06/21 00:59:39;;;;;;;2.05;0.80;;;;;;;;;;5006953;28;20409;-69
2022/06/21 01:02:17;;;;;;;0.88;0.70;;;;;;;;;;4984489;28;20467;-68
2022/06/21 01:04:45;;;;;;;0.95;0.65;;;;;;;;;;4990305;28;20051;-68
2022/06/21 01:07:12;;;;;;;2.75;0.77;;;;;;;;;;4991947;28;20324;-69
2022/06/21 01:10:05;;;;;;;0.77;0.60;;;;;;;;;;4994820;28;20342;-69
2022/06/21 01:12:36;;;;;;;0.88;0.60;;;;;;;;;;4991155;28;20406;-69
2022/06/21 01:15:07;;;;;;;1.60;0.70;;;;;;;;;;5012422;28;20417;-68
2022/06/21 01:17:33;;;;;;;1.88;0.90;;;;;;;;;;4993591;28;20444;-69
2022/06/21 01:20:06;;;;;;;0.47;0.47;;;;;;;;;;4994735;28;20316;-68
2022/06/21 01:22:59;;;;;;;3.95;0.80;;;;;;;;;;5011322;28;20331;-68
2022/06/21 01:25:46;;;;;;;0.68;0.60;;;;;;;;;;5011886;28;20444;-68
2022/06/21 01:28:12;;;;;;;1.77;0.80;;;;;;;;;;5011826;28;20107;-69
2022/06/21 01:30:38;;;;;;;0.88;0.70;;;;;;;;;;4994221;28;20051;-68
2022/06/21 01:33:03;;;;;;;3.42;0.88;;;;;;;;;;4994449;28;20467;-68
2022/06/21 01:36:00;;;;;;;0.90;0.90;;;;;;;;;;4993099;28;20434;-68
2022/06/21 01:38:30;;;;;;;1.77;0.70;;;;;;;;;;4995548;28;20581;-69
2022/06/21 01:41:02;;;;;;;1.00;0.90;;;;;;;;;;4993599;28;20378;-68
2022/06/21 01:43:28;;;;;;;3.13;0.75;;;;;;;;;;4993846;28;20342;-68
2022/06/21 01:45:58;;;;;;;0.63;0.63;;;;;;;;;;4993265;28;20447;-69
2022/06/21 01:48:32;;;;;;;0.98;0.60;;;;;;;;;;4993349;28;20352;-68
2022/06/21 01:51:11;;;;;;;2.63;1.00;;;;;;;;;;5011093;28;20371;-69
2022/06/21 01:53:37;;;;;;;1.42;0.80;;;;;;;;;;4993676;28;20147;-69
2022/06/21 01:56:14;;;;;;;5.20;0.70;;;;;;;;;;4993304;28;20032;-68
2022/06/21 01:58:44;;;;;;;1.35;0.70;;;;;;;;;;5011249;28;20416;-70
2022/06/21 02:01:27;;;;;;;1.30;0.60;;;;;;;;;;4992906;28;20436;-69
2022/06/21 02:03:55;;;;;;;3.53;0.90;;;;;;;;;;4993034;28;20482;-69
2022/06/21 02:06:22;;;;;;;3.40;0.85;;;;;;;;;;4993031;28;20367;-69
2022/06/21 02:08:51;;;;;;;0.93;0.77;;;;;;;;;;4993086;28;20297;-69
2022/06/21 02:11:24;;;;;;;1.50;0.90;;;;;;;;;;5011008;28;20427;-69
2022/06/21 02:14:28;;;;;;;1.95;0.80;;;;;;;;;;5010429;28;20423;-68
2022/06/21 02:16:40;;;;;;;1.42;1.10;;;;;;;;;;4995782;28;20483;-68
2022/06/21 02:19:05;;;;;;;2.80;1.25;;;;;;;;;;4992367;28;20443;-69
2022/06/21 02:21:35;;;;;;;2.55;1.05;;;;;;;;;;5010704;28;20427;-68
2022/06/21 02:24:00;;;;;;;1.52;0.80;;;;;;;;;;4992058;28;20336;-69
2022/06/21 02:26:29;;;;;;;0.75;0.70;;;;;;;;;;4993501;28;20347;-69
2022/06/21 02:28:55;;;;;;;;;;;;;;;;;;4993299;28;20342;-69
2022/06/21 02:31:21;;;;;;;1.38;0.80;;;;;;;;;;4992180;28;19991;-68
2022/06/21 02:33:48;;;;;;;1.40;0.90;;;;;;;;;;4992506;28;20344;-69
2022/06/21 02:36:22;;;;;;;1.70;0.90;;;;;;;;;;4992389;28;20342;-69
2022/06/21 02:38:54;;;;;;;0.88;0.80;;;;;;;;;;4992213;28;20447;-69
2022/06/21 02:41:25;;;;;;;0.80;0.80;;;;;;;;;;4992607;28;20435;-68
2022/06/21 02:43:56;;;;;;;1.10;0.75;;;;;;;;;;4992079;28;20490;-69
2022/06/21 02:46:31;;;;;;;1.17;0.77;;;;;;;;;;4992063;28;20348;-69
2022/06/21 02:49:14;;;;;;;1.02;0.88;;;;;;;;;;4975642;28;20382;-69
2022/06/21 02:52:15;;;;;;;0.80;0.63;;;;;;;;;;4992065;28;20098;-69
2022/06/21 02:55:03;;;;;;;0.90;0.80;;;;;;;;;;4997210;28;20473;-68
2022/06/21 02:57:37;;;;;;;1.63;1.02;;;;;;;;;;5010209;28;20378;-68
2022/06/21 03:00:06;;;;;;;0.93;0.77;;;;;;;;;;5010862;28;20061;-69
2022/06/21 03:02:32;;;;;;;1.23;0.80;;;;;;;;;;4992676;28;20362;-68
2022/06/21 03:05:02;;;;;;;1.48;0.80;;;;;;;;;;5007870;28;20386;-69
2022/06/21 03:07:31;;;;;;;1.00;0.90;;;;;;;;;;5011213;28;20388;-69
2022/06/21 03:09:57;;;;;;;1.58;1.00;;;;;;;;;;4991600;28;20347;-69
2022/06/21 03:12:27;;;;;;;1.65;1.00;;;;;;;;;;4991766;28;20490;-69
2022/06/21 03:14:55;;;;;;;2.15;1.40;;;;;;;;;;4991967;28;20040;-68
2022/06/21 03:17:24;;;;;;;1.00;0.60;;;;;;;;;;4991707;28;20427;-70
2022/06/21 03:19:51;;;;;;;1.45;0.98;;;;;;;;;;4991515;28;20320;-68
2022/06/21 03:22:18;;;;;;;1.38;0.95;;;;;;;;;;5010008;28;20447;-69
2022/06/21 03:24:45;;;;;;;1.58;1.10;;;;;;;;;;5009120;28;20498;-69
2022/06/21 03:27:16;;;;;;;1.08;0.90;;;;;;;;;;4991497;28;20420;-68
2022/06/21 03:29:42;;;;;;;3.33;1.20;;;;;;;;;;4991402;28;20481;-69
2022/06/21 03:32:07;;;;;;;1.17;0.90;;;;;;;;;;5009383;28;20366;-69
2022/06/21 03:34:35;;;;;;;1.40;1.23;;;;;;;;;;4991629;28;20381;-69
2022/06/21 03:37:00;;;;;;;3.03;1.15;;;;;;;;;;4991249;28;20028;-69
2022/06/21 03:42:14;;;;;;;2.08;1.58;;;;;;;;;;5009113;28;20525;-68
2022/06/21 03:44:45;;;;;;;1.95;1.13;;;;;;;;;;5007540;28;20297;-69
2022/06/21 03:47:25;;;;;;;1.40;1.10;;;;;;;;;;5010568;28;20416;-68
2022/06/21 03:50:13;;;;;;;2.05;1.20;;;;;;;;;;4990911;28;20367;-69
2022/06/21 03:52:47;;;;;;;2.95;1.50;;;;;;;;;;4990931;28;20402;-69
2022/06/21 03:55:36;;;;;;;5.72;1.38;;;;;;;;;;4991276;28;20382;-68
2022/06/21 03:58:32;;;;;;;3.13;1.20;;;;;;;;;;4991115;28;20348;-69
2022/06/21 04:01:07;;;;;;;1.85;1.02;;;;;;;;;;5008365;28;20455;-69
2022/06/21 04:03:46;;;;;;;3.05;1.38;;;;;;;;;;4990660;28;20463;-69
2022/06/21 04:06:22;;;;;;;1.90;1.38;;;;;;;;;;4991208;28;20423;-71
2022/06/21 04:09:03;;;;;;;1.50;1.15;;;;;;;;;;5008602;28;20028;-69
2022/06/21 04:11:37;;;;;;;3.90;1.83;;;;;;;;;;5009333;28;20032;-69
2022/06/21 04:14:07;;;;;;;3.38;1.48;;;;;;;;;;5008389;28;20466;-70
2022/06/21 04:16:44;;;;;;;1.25;1.02;;;;;;;;;;4991027;28;20343;-69
2022/06/21 04:19:35;;;;;;;2.67;1.75;;;;;;;;;;5008744;28;20386;-69
2022/06/21 04:22:10;;;;;;;1.60;1.10;;;;;;;;;;4998558;28;20534;-69
2022/06/21 04:24:47;;;;;;;2.60;1.40;;;;;;;;;;5008232;28;20342;-69
2022/06/21 04:27:16;;;;;;;2.03;1.55;;;;;;;;;;4991000;28;20350;-69
2022/06/21 04:29:48;;;;;;;1.88;1.10;;;;;;;;;;5008397;28;20028;-69
2022/06/21 04:32:16;;;;;;;1.98;1.25;;;;;;;;;;4990153;28;20083;-69
2022/06/21 04:34:45;;;;;;;1.60;1.38;;;;;;;;;;4990699;28;20442;-69
2022/06/21 04:37:16;;;;;;;1.58;1.27;;;;;;;;;;5008631;28;20416;-69
2022/06/21 04:40:02;;;;;;;7.10;1.60;;;;;;;;;;4990514;28;20030;-69
2022/06/21 04:42:37;;;;;;;2.30;1.48;;;;;;;;;;4993488;28;20048;-69
2022/06/21 04:45:25;;;;;;;2.63;1.42;;;;;;;;;;4994638;28;20489;-69
2022/06/21 04:48:09;;;;;;;1.98;1.45;;;;;;;;;;4994627;28;20470;-69
2022/06/21 04:50:40;;;;;;;2.13;1.30;;;;;;;;;;5013448;28;20339;-69
2022/06/21 04:53:16;;;;;;;2.00;1.20;;;;;;;;;;4978469;28;20335;-69
2022/06/21 04:56:06;;;;;;;1.73;1.25;;;;;;;;;;4995358;28;20351;-69
2022/06/21 04:58:31;;;;;;;2.38;1.48;;;;;;;;;;5012491;28;20546;-69
2022/06/21 05:00:58;;;;;;;2.97;1.40;;;;;;;;;;4994364;28;20423;-69
2022/06/21 05:03:26;;;;;;;2.25;1.67;;;;;;;;;;5010306;28;20471;-70
2022/06/21 05:05:52;;;;;;;1.63;1.30;;;;;;;;;;5012242;28;20501;-69
2022/06/21 05:08:20;;;;;;;3.35;1.63;;;;;;;;;;5011778;28;20483;-69
2022/06/21 05:10:48;;;;;;;1.65;1.50;;;;;;;;;;4994108;28;20079;-69
2022/06/21 05:13:37;;;;;;;1.83;1.53;;;;;;;;;;5012529;28;20339;-70
2022/06/21 05:16:11;;;;;;;2.88;1.45;;;;;;;;;;4977690;28;20362;-70
2022/06/21 05:18:44;;;;;;;2.75;1.50;;;;;;;;;;5013460;28;20552;-69
2022/06/21 05:21:19;;;;;;;5.00;1.50;;;;;;;;;;5011723;28;20340;-69
2022/06/21 05:23:45;;;;;;;4.13;1.60;;;;;;;;;;4994380;28;20086;-69
2022/06/21 05:26:38;;;;;;;2.33;1.73;;;;;;;;;;5011324;28;20356;-69
2022/06/21 05:29:16;;;;;;;3.53;1.77;;;;;;;;;;4994011;28;20419;-69
2022/06/21 05:31:45;;;;;;;1.95;1.52;;;;;;;;;;5011474;28;20348;-70
2022/06/21 05:34:29;;;;;;;2.42;1.38;;;;;;;;;;4993905;28;20514;-69
2022/06/21 05:36:59;;;;;;;5.18;1.50;;;;;;;;;;4993666;28;20450;-71
2022/06/21 05:39:32;;;;;;;5.80;1.95;;;;;;;;;;4993724;28;20435;-69
2022/06/21 05:42:01;;;;;;;1.83;1.25;;;;;;;;;;5010974;28;20457;-70
2022/06/21 05:44:32;;;;;;;4.18;1.70;;;;;;;;;;5011363;28;20443;-70
2022/06/21 05:47:04;;;;;;;2.92;1.42;;;;;;;;;;4994408;28;20304;-70
2022/06/21 05:49:32;;;;;;;3.22;1.58;;;;;;;;;;5011555;28;20324;-69
2022/06/21 05:52:00;;;;;;;5.15;1.65;;;;;;;;;;4993389;28;20497;-69
2022/06/21 05:54:36;;;;;;;2.08;1.17;;;;;;;;;;5010487;28;20029;-69
2022/06/21 05:57:02;;;;;;;2.17;1.33;;;;;;;;;;5011042;28;20439;-69
2022/06/21 05:59:28;;;;;;;2.15;1.40;;;;;;;;;;4992975;28;20339;-70
2022/06/21 06:02:10;;;;;;;3.00;1.40;;;;;;;;;;4993190;28;20422;-69
2022/06/21 06:04:42;;;;;;;1.65;1.20;;;;;;;;;;5010693;28;20382;-69
2022/06/21 06:07:11;;;;;;;1.70;1.23;;;;;;;;;;5010692;28;20016;-69
2022/06/21 06:09:40;;;;;;;4.53;1.20;;;;;;;;;;4992997;28;20450;-69
2022/06/21 06:12:21;;;;;;;5.53;1.27;;;;;;;;;;4993513;28;20416;-69
2022/06/21 06:15:38;;;;;;;2.40;1.10;;;;;;;;;;4992668;28;20087;-69
2022/06/21 06:18:13;;;;;;;3.10;1.25;;;;;;;;;;4914119;28;20370;-69
2022/06/21 06:20:44;;;;;;;2.13;0.95;;;;;;;;;;4929468;28;20354;-69
2022/06/21 06:23:42;;;;;;;3.53;1.15;;;;;;;;;;4982121;28;20171;-69
2022/06/21 06:26:20;;;;;;;1.90;1.27;;;;;;;;;;4992222;28;20410;-70
2022/06/21 06:29:15;;;;;;;2.65;1.05;;;;;;;;;;5011012;28;20440;-69
2022/06/21 06:31:58;;;;;;;2.78;1.10;;;;;;;;;;5010591;28;20123;-69
2022/06/21 06:34:27;;;;;;;1.25;0.75;;;;;;;;;;5010284;28;20343;-69
2022/06/21 06:37:00;;;;;;;1.10;1.00;;;;;;;;;;5010679;28;20423;-69
2022/06/21 06:39:29;;;;;;;2.55;0.90;;;;;;;;;;4992212;28;20438;-69
2022/06/21 06:42:10;;;;;;;1.48;1.05;;;;;;;;;;4976046;28;20428;-70
2022/06/21 06:44:38;;;;;;;2.65;1.23;;;;;;;;;;4993114;28;20438;-70
2022/06/21 06:47:09;;;;;;;2.63;1.00;;;;;;;;;;4992009;28;20447;-69
2022/06/21 06:49:38;;;;;;;3.38;0.80;;;;;;;;;;4989009;28;20473;-69
2022/06/21 06:52:26;;;;;;;2.00;0.80;;;;;;;;;;4647650;28;10001179;-69
2022/06/21 06:55:14;;;;;;;1.60;0.85;;;;;;;;;;5009560;28;20329;-69
2022/06/21 06:57:39;;;;;;;1.50;0.73;;;;;;;;;;5009958;28;20428;-69
2022/06/21 07:00:20;;;;;;;1.13;0.90;;;;;;;;;;5009579;28;20458;-69
2022/06/21 07:03:12;;;;;;;2.60;0.75;;;;;;;;;;4992133;28;20186;-69
2022/06/21 07:05:43;;;;;;;1.30;1.02;;;;;;;;;;4990781;28;20365;-69
2022/06/21 07:08:45;;;;;;;1.15;0.68;;;;;;;;;;4992096;28;20386;-70
2022/06/21 07:11:21;;;;;;;0.98;0.88;;;;;;;;;;4991794;28;20040;-69
2022/06/21 07:13:47;;;;;;;1.65;0.80;;;;;;;;;;4991765;28;20331;-69
2022/06/21 07:16:16;;;;;;;2.03;0.82;;;;;;;;;;5007814;28;20021;-70
2022/06/21 07:18:55;;;;;;;1.30;0.98;;;;;;;;;;4991789;28;20033;-69
2022/06/21 07:21:22;;;;;;;4.00;0.90;;;;;;;;;;4991446;28;20382;-69
2022/06/21 07:23:48;;;;;;;8.40;0.80;;;;;;;;;;5009660;28;20481;-69
2022/06/21 07:26:21;;;;;;;0.73;0.73;;;;;;;;;;4990897;28;20056;-69
2022/06/21 07:28:51;;;;;;;2.55;0.73;;;;;;;;;;5009335;28;20020;-69
2022/06/21 07:31:27;;;;;;;1.60;0.88;;;;;;;;;;4991095;28;20115;-70
2022/06/21 07:34:00;;;;;;;1.90;0.77;;;;;;;;;;4991414;28;20364;-69
2022/06/21 07:36:31;;;;;;;2.45;0.70;;;;;;;;;;4991726;28;20412;-69
2022/06/21 07:39:04;;;;;;;0.90;0.60;;;;;;;;;;4991447;28;20087;-69
2022/06/21 07:41:40;;;;;;;2.25;0.70;;;;;;;;;;4991550;28;20503;-69
2022/06/21 07:44:30;;;;;;;1.92;1.13;;;;;;;;;;4991149;28;20115;-70
2022/06/21 07:47:27;;;;;;;0.77;0.77;;;;;;;;;;4944829;28;20324;-69
2022/06/21 07:49:56;;;;;;;0.85;0.60;;;;;;;;;;5007272;28;20063;-70
2022/06/21 07:52:29;;;;;;;1.75;0.80;;;;;;;;;;4991402;28;20075;-69
2022/06/21 07:55:00;;;;;;;3.00;0.77;;;;;;;;;;4990772;28;20029;-70
2022/06/21 07:57:32;;;;;;;2.85;0.73;;;;;;;;;;4974370;28;20325;-69
2022/06/21 08:00:06;;;;;;;0.65;0.52;;;;;;;;;;4991143;28;20363;-70
2022/06/21 08:08:08;;;;;;;2.55;0.60;;;;;;;;;;4994239;28;20094;-70
2022/06/21 08:10:44;;;;;;;2.85;0.98;;;;;;;;;;4991206;28;20111;-70
2022/06/21 08:13:10;;;;;;;0.65;0.57;;;;;;;;;;4991317;28;20415;-69
2022/06/21 08:15:43;;;;;;;1.20;0.63;;;;;;;;;;5008293;28;20514;-70
2022/06/21 08:18:40;;;;;;;1.17;0.45;;;;;;;;;;4990371;28;20386;-69
2022/06/21 08:21:10;;;;;;;0.82;0.60;;;;;;;;;;5008044;28;20036;-70
2022/06/21 08:23:47;;;;;;;1.42;0.65;;;;;;;;;;5006273;28;20036;-69
2022/06/21 08:26:18;;;;;;;3.35;0.77;;;;;;;;;;5002320;28;20479;-70
2022/06/21 08:29:22;;;;;;;4.80;0.75;;;;;;;;;;4974467;28;20553;-69
2022/06/21 08:31:55;;;;;;;1.30;0.70;;;;;;;;;;4910029;28;20524;-69
2022/06/21 08:34:29;;;;;;;1.85;0.50;;;;;;;;;;4990745;28;20048;-69
2022/06/21 08:36:56;;;;;;;1.00;0.70;;;;;;;;;;5008639;28;20455;-70
2022/06/21 08:39:43;;;;;;;2.00;0.80;;;;;;;;;;4991012;28;20478;-69
2022/06/21 08:42:47;;;;;;;3.00;1.13;;;;;;;;;;5008398;28;20439;-69
2022/06/21 08:45:43;;;;;;;1.55;0.60;;;;;;;;;;4992719;28;20513;-69
2022/06/21 08:48:40;;;;;;;1.30;0.52;;;;;;;;;;5008915;28;20087;-69
2022/06/21 08:51:43;;;;;;;1.75;0.68;;;;;;;;;;4991559;28;20489;-69
2022/06/21 08:54:32;;;;;;;2.13;0.70;;;;;;;;;;5008489;28;20398;-70
2022/06/21 08:57:22;;;;;;;0.77;0.60;;;;;;;;;;5008266;28;20434;-70
2022/06/21 09:00:29;;;;;;;1.60;1.17;;;;;;;;;;5009722;28;20032;-69
2022/06/21 09:03:03;;;;;;;1.67;0.63;;;;;;;;;;4942509;28;20447;-70
2022/06/21 09:05:48;;;;;;;2.47;0.68;;;;;;;;;;5010020;28;20594;-70
2022/06/21 09:08:31;;;;;;;2.35;0.80;;;;;;;;;;5007864;28;20461;-70
2022/06/21 09:11:35;;;;;;;1.48;0.60;;;;;;;;;;4990210;28;20455;-70
2022/06/21 09:14:15;;;;;;;2.42;0.75;;;;;;;;;;5009407;28;20455;-69
2022/06/21 09:16:59;;;;;;;1.08;0.52;;;;;;;;;;5007797;28;20443;-70
2022/06/21 09:20:06;;;;;;;0.65;0.60;;;;;;;;;;5008407;28;20020;-69
2022/06/21 09:22:32;;;;;;;1.35;0.47;;;;;;;;;;4892259;28;20506;-70
2022/06/21 09:25:10;;;;;;;0.75;0.75;;;;;;;;;;4990690;28;20369;-69
2022/06/21 09:27:40;;;;;;;2.05;0.70;;;;;;;;;;4990282;28;20148;-69
2022/06/21 09:30:13;;;;;;;2.08;0.60;;;;;;;;;;4994219;28;20442;-70
2022/06/21 09:32:51;;;;;;;1.50;0.50;;;;;;;;;;4993939;28;20316;-69
2022/06/21 09:35:47;;;;;;;5.88;1.05;;;;;;;;;;5011404;28;20451;-70
2022/06/21 09:38:30;;;;;;;3.00;0.73;;;;;;;;;;5010974;28;20375;-70
2022/06/21 09:41:24;;;;;;;0.60;0.47;;;;;;;;;;5011385;28;20539;-69
2022/06/21 09:44:11;;;;;;;0.68;0.60;;;;;;;;;;4993256;28;20505;-70
2022/06/21 09:46:52;;;;;;;1.30;0.65;;;;;;;;;;4993542;28;20458;-70
2022/06/21 09:49:40;;;;;;;1.55;0.43;;;;;;;;;;4993783;28;20359;-69
2022/06/21 09:52:23;;;;;;;1.33;0.52;;;;;;;;;;5012380;28;20431;-69
2022/06/21 09:55:42;;;;;;;5.30;0.70;;;;;;;;;;5011409;28;20351;-70
2022/06/21 09:58:32;;;;;;;0.85;0.65;;;;;;;;;;4911388;28;20405;-70
2022/06/21 10:01:25;;;;;;;2.55;0.75;;;;;;;;;;4976893;28;20352;-70
2022/06/21 10:04:04;;;;;;;1.42;0.50;;;;;;;;;;4993390;28;20435;-70
2022/06/21 10:06:39;;;;;;;2.75;0.70;;;;;;;;;;4993596;28;20423;-70
2022/06/21 10:09:42;;;;;;;0.73;0.50;;;;;;;;;;5011059;28;20060;-69
2022/06/21 10:12:17;;;;;;;0.70;0.52;;;;;;;;;;5010550;28;20344;-69
2022/06/21 10:14:48;;;;;;;1.92;0.60;;;;;;;;;;5010984;28;20436;-70
2022/06/21 10:17:42;;;;;;;1.80;0.73;;;;;;;;;;5011035;28;20448;-70
2022/06/21 10:20:40;;;;;;;5.80;0.88;;;;;;;;;;5010763;28;20370;-72
2022/06/21 10:23:40;;;;;;;4.32;0.77;;;;;;;;;;5010758;28;20424;-69
2022/06/21 10:26:36;;;;;;;0.98;0.63;;;;;;;;;;5010412;28;20095;-70
2022/06/21 10:29:16;;;;;;;4.03;0.93;;;;;;;;;;5012631;28;20406;-70
2022/06/21 10:32:23;;;;;;;1.17;0.65;;;;;;;;;;5010542;28;20344;-70
2022/06/21 10:35:30;;;;;;;1.80;0.60;;;;;;;;;;5010601;28;20451;-70
2022/06/21 10:38:13;;;;;;;3.70;0.60;;;;;;;;;;4969405;28;20487;-70
2022/06/21 10:40:57;;;;;;;1.70;0.63;;;;;;;;;;5009940;28;20025;-71
2022/06/21 10:43:39;;;;;;;2.55;0.60;;;;;;;;;;5010871;28;20394;-70
2022/06/21 10:46:07;;;;;;;1.70;0.80;;;;;;;;;;5009865;28;20459;-70
2022/06/21 10:48:51;;;;;;;1.90;0.77;;;;;;;;;;5010858;28;20405;-70
2022/06/21 10:51:27;;;;;;;2.13;0.50;;;;;;;;;;5009031;28;20404;-70
2022/06/21 10:54:11;;;;;;;5.78;0.70;;;;;;;;;;4992722;28;20481;-70
2022/06/21 10:57:09;;;;;;;2.40;0.65;;;;;;;;;;5010654;28;20036;-70
2022/06/21 11:02:50;;;;;;;1.55;0.60;;;;;;;;;;5010205;28;20386;-70
2022/06/21 11:05:17;;;;;;;1.10;0.93;;;;;;;;;;4992155;28;20051;-70
2022/06/21 11:08:07;;;;;;;1.75;0.80;;;;;;;;;;4992010;28;20020;-70
2022/06/21 11:10:37;;;;;;;2.33;0.77;;;;;;;;;;4991950;28;20338;-70
2022/06/21 11:13:06;;;;;;;2.33;0.80;;;;;;;;;;4992092;28;20459;-70
2022/06/21 11:15:56;;;;;;;1.77;0.75;;;;;;;;;;4992393;28;20432;-70
2022/06/21 11:18:28;;;;;;;2.03;1.02;;;;;;;;;;4992254;28;20580;-71
2022/06/21 11:20:53;;;;;;;1.38;0.85;;;;;;;;;;5009416;28;20033;-71
2022/06/21 11:23:27;;;;;;;1.60;0.75;;;;;;;;;;5009838;28;20479;-70
2022/06/21 11:26:13;;;;;;;1.05;0.70;;;;;;;;;;4991119;28;20497;-70
2022/06/21 11:28:56;;;;;;;1.40;0.85;;;;;;;;;;5010350;28;20079;-71
2022/06/21 11:31:43;;;;;;;1.65;0.82;;;;;;;;;;5010695;28;20491;-70
2022/06/21 11:34:22;;;;;;;1.15;0.55;;;;;;;;;;5009441;28;20428;-72
2022/06/21 11:37:03;;;;;;;1.75;0.73;;;;;;;;;;5010559;28;20043;-70
2022/06/21 11:39:40;;;;;;;0.98;0.70;;;;;;;;;;5009006;28;20453;-70
2022/06/21 11:42:08;;;;;;;3.92;0.60;;;;;;;;;;5009437;28;20522;-69
2022/06/21 11:44:46;;;;;;;2.60;0.80;;;;;;;;;;5009582;28;20413;-70
2022/06/21 11:47:45;;;;;;;1.45;0.77;;;;;;;;;;5009140;28;20470;-70
2022/06/21 11:50:30;;;;;;;0.75;0.60;;;;;;;;;;4950851;28;20625;-69
2022/06/21 11:53:27;;;;;;;0.90;0.70;;;;;;;;;;5008080;28;20037;-70
2022/06/21 11:56:08;;;;;;;1.40;0.65;;;;;;;;;;5010795;28;20061;-71
2022/06/21 11:58:45;;;;;;;0.98;0.60;;;;;;;;;;5009186;28;20114;-71
2022/06/21 12:01:55;;;;;;;1.55;0.60;;;;;;;;;;5008941;28;20386;-71
2022/06/21 12:04:58;;;;;;;5.60;0.70;;;;;;;;;;5004034;28;20329;-71
2022/06/21 12:07:40;;;;;;;3.28;0.95;;;;;;;;;;5009127;28;20032;-70
2022/06/21 12:10:19;;;;;;;2.67;0.65;;;;;;;;;;4991610;28;20392;-70
2022/06/21 12:12:53;;;;;;;1.70;0.60;;;;;;;;;;5008875;28;20060;-70
2022/06/21 12:15:26;;;;;;;6.30;0.82;;;;;;;;;;4991035;28;20024;-70
2022/06/21 12:17:58;;;;;;;2.58;0.70;;;;;;;;;;5008696;28;20585;-70
2022/06/21 12:20:32;;;;;;;0.85;0.60;;;;;;;;;;4990942;28;20125;-72
2022/06/21 12:23:15;;;;;;;2.83;0.80;;;;;;;;;;5008702;28;20078;-71
2022/06/21 12:25:41;;;;;;;0.75;0.50;;;;;;;;;;5006967;28;20368;-70
2022/06/21 12:28:15;;;;;;;1.10;0.52;;;;;;;;;;5009204;28;20079;-69
2022/06/21 12:30:40;;;;;;;2.72;0.50;;;;;;;;;;5008992;28;20439;-69
2022/06/21 12:33:09;;;;;;;1.67;0.57;;;;;;;;;;4990942;28;20353;-70
2022/06/21 12:35:44;;;;;;;1.75;0.73;;;;;;;;;;4991153;28;20464;-71
2022/06/21 12:38:12;;;;;;;1.17;0.60;;;;;;;;;;4990999;28;20432;-70
2022/06/21 12:40:44;;;;;;;0.65;0.50;;;;;;;;;;4990301;28;20095;-70
2022/06/21 12:43:57;;;;;;;0.95;0.47;;;;;;;;;;5008599;28;20439;-71
2022/06/21 12:46:43;;;;;;;1.92;0.93;;;;;;;;;;4908107;28;20447;-70
2022/06/21 12:49:33;;;;;;;1.02;0.50;;;;;;;;;;4892722;28;20098;-71
2022/06/21 12:52:03;;;;;;;1.15;0.65;;;;;;;;;;4990652;28;20398;-70
2022/06/21 12:54:53;;;;;;;3.60;1.02;;;;;;;;;;4990763;28;20312;-70
2022/06/21 12:57:25;;;;;;;0.45;0.40;;;;;;;;;;5008338;28;20459;-72
2022/06/21 12:59:59;;;;;;;1.70;0.60;;;;;;;;;;5009855;28;20422;-70
2022/06/21 13:02:45;;;;;;;1.48;0.40;;;;;;;;;;5009881;28;20334;-70
2022/06/21 13:05:13;;;;;;;0.50;0.50;;;;;;;;;;5012511;28;20621;-70
2022/06/21 13:07:50;;;;;;;3.05;0.77;;;;;;;;;;5012392;28;20479;-70
2022/06/21 13:10:32;;;;;;;0.90;0.50;;;;;;;;;;5012246;28;20362;-70
2022/06/21 13:13:23;;;;;;;5.13;0.40;;;;;;;;;;5010284;28;20308;-70
2022/06/21 13:16:04;;;;;;;1.15;0.73;;;;;;;;;;4995040;28;20316;-71
2022/06/21 13:18:45;;;;;;;1.95;0.70;;;;;;;;;;4994127;28;20466;-70
2022/06/21 13:21:25;;;;;;;2.35;0.60;;;;;;;;;;5012159;28;20474;-71
2022/06/21 13:24:24;;;;;;;0.73;0.50;;;;;;;;;;4993752;28;20202;-71
2022/06/21 13:27:00;;;;;;;1.85;0.88;;;;;;;;;;4974681;28;20402;-70
2022/06/21 13:29:29;;;;;;;0.70;0.43;;;;;;;;;;4974923;28;20447;-70
2022/06/21 13:31:58;;;;;;;3.50;0.80;;;;;;;;;;4973929;28;20056;-71
2022/06/21 13:34:37;;;;;;;1.15;0.50;;;;;;;;;;4991168;28;20328;-70
2022/06/21 13:37:23;;;;;;;1.58;0.70;;;;;;;;;;4958750;28;20355;-70
2022/06/21 13:40:25;;;;;;;1.42;0.40;;;;;;;;;;4991136;28;20021;-70
2022/06/21 13:43:07;;;;;;;3.78;0.40;;;;;;;;;;4975188;28;20359;-70
2022/06/21 13:45:43;;;;;;;1.75;0.63;;;;;;;;;;4992607;28;20321;-70
2022/06/21 13:48:28;;;;;;;4.20;0.68;;;;;;;;;;4992016;28;20032;-70
2022/06/21 13:51:00;;;;;;;1.10;1.00;;;;;;;;;;4973600;28;20347;-70
2022/06/21 13:53:40;;;;;;;1.30;0.47;;;;;;;;;;4970926;28;20376;-70
2022/06/21 13:56:15;;;;;;;0.30;0.20;;;;;;;;;;4984668;28;20387;-71
2022/06/21 13:58:46;;;;;;;1.48;0.60;;;;;;;;;;4991331;28;20099;-70
2022/06/21 14:01:35;;;;;;;5.30;0.57;;;;;;;;;;4973785;28;20387;-70
2022/06/21 14:04:19;;;;;;;2.33;0.47;;;;;;;;;;4991922;28;20451;-69
2022/06/21 14:06:44;;;;;;;0.98;0.40;;;;;;;;;;4973093;28;20445;-70
2022/06/21 14:09:39;;;;;;;1.13;0.50;;;;;;;;;;4991321;28;20383;-70
2022/06/21 14:12:15;;;;;;;5.47;0.82;;;;;;;;;;4974044;28;20032;-70
2022/06/21 14:14:50;;;;;;;0.88;0.52;;;;;;;;;;4973007;28;20348;-70
2022/06/21 14:17:34;;;;;;;0.45;0.35;;;;;;;;;;4991320;28;20440;-70
2022/06/21 14:20:33;;;;;;;0.73;0.50;;;;;;;;;;4991295;28;20492;-71
2022/06/21 14:23:20;;;;;;;2.05;0.50;;;;;;;;;;4915346;28;20463;-70
2022/06/21 14:26:08;;;;;;;12.43;0.73;;;;;;;;;;4986202;28;20375;-70
2022/06/21 14:28:57;;;;;;;1.60;0.32;;;;;;;;;;5011177;28;20478;-72
2022/06/21 14:31:27;;;;;;;0.80;0.52;;;;;;;;;;4993134;28;20435;-69
2022/06/21 14:34:01;;;;;;;1.45;0.50;;;;;;;;;;5010828;28;20036;-70
2022/06/21 14:36:32;;;;;;;1.92;0.70;;;;;;;;;;4993550;28;20094;-71
2022/06/21 14:39:20;;;;;;;0.60;0.40;;;;;;;;;;4993103;28;20347;-70
2022/06/21 14:41:56;;;;;;;6.40;0.55;;;;;;;;;;4972809;28;20477;-70
2022/06/21 14:44:31;;;;;;;6.82;1.13;;;;;;;;;;5010368;28;20455;-70
2022/06/21 14:47:27;;;;;;;0.80;0.28;;;;;;;;;;4992409;28;20456;-71
2022/06/21 14:50:28;;;;;;;0.20;0.20;;;;;;;;;;5011054;28;20336;-70
2022/06/21 14:53:28;;;;;;;2.80;0.50;;;;;;;;;;4958336;28;20586;-70
2022/06/21 14:56:16;;;;;;;0.40;0.30;;;;;;;;;;4978159;28;20510;-71
2022/06/21 14:58:44;;;;;;;1.85;0.60;;;;;;;;;;4992520;28;20101;-70
2022/06/21 15:01:35;;;;;;;3.25;0.47;;;;;;;;;;5010011;28;20462;-70
2022/06/21 15:04:26;;;;;;;1.35;0.50;;;;;;;;;;5010278;28;20526;-71
2022/06/21 15:07:03;;;;;;;0.93;0.70;;;;;;;;;;5009664;28;20524;-70
2022/06/21 15:09:43;;;;;;;1.27;0.28;;;;;;;;;;5011054;28;20469;-71
2022/06/21 15:12:11;;;;;;;0.77;0.63;;;;;;;;;;4993559;28;20194;-70
2022/06/21 15:14:40;;;;;;;1.42;0.60;;;;;;;;;;4975499;28;20315;-71
2022/06/21 15:17:26;;;;;;;0.60;0.40;;;;;;;;;;5010059;28;20577;-70
2022/06/21 15:20:11;;;;;;;2.08;0.28;;;;;;;;;;4992032;28;20347;-70
2022/06/21 15:22:51;;;;;;;0.55;0.35;;;;;;;;;;5010383;28;20331;-70
2022/06/21 15:25:34;;;;;;;0.40;0.40;;;;;;;;;;5009277;28;20473;-70
2022/06/21 15:28:20;;;;;;;1.23;0.40;;;;;;;;;;5009505;28;20347;-70
2022/06/21 15:30:52;;;;;;;2.20;0.43;;;;;;;;;;5009967;28;20459;-69
2022/06/21 15:33:35;;;;;;;1.73;0.40;;;;;;;;;;4991805;28;20423;-70
2022/06/21 15:36:06;;;;;;;0.40;0.40;;;;;;;;;;4991322;28;20490;-70
2022/06/21 15:38:43;;;;;;;1.00;0.45;;;;;;;;;;5009669;28;20478;-70
2022/06/21 15:41:12;;;;;;;1.23;0.50;;;;;;;;;;5009193;28;20355;-70
2022/06/21 15:43:38;;;;;;;0.88;0.52;;;;;;;;;;5009374;28;20450;-70
2022/06/21 15:46:12;;;;;;;0.40;0.30;;;;;;;;;;5009216;28;20328;-70
2022/06/21 15:51:25;;;;;;;2.67;0.60;;;;;;;;;;4995163;28;20466;-70
2022/06/21 15:54:12;;;;;;;1.67;0.50;;;;;;;;;;5009137;28;20480;-70
2022/06/21 15:57:18;;;;;;;2.25;1.25;;;;;;;;;;5009471;28;20505;-70
2022/06/21 15:59:55;;;;;;;2.30;0.70;;;;;;;;;;4992000;28;20119;-70
2022/06/21 16:02:27;;;;;;;1.13;0.60;;;;;;;;;;5010448;28;20095;-70